Time;durP1;ratioP1;P1;durP2;ratioP2;P2;SDS_P1;SDS_P2;PMS_P1;PMS_P2;Temp;Humidity;BMP_temperature;BMP_pressure;BME280_temperature;BME280_humidity;BME280_pressure;Samples;Min_cycle;Max_cycle;Signal;HPM_P1;HPM_P2
2022/11/29 00:01:14;;;;;;;33.87;20.27;;;;;;;3.24;93.03;100778.22;1709512;82;21054;-75
2022/11/29 00:03:42;;;;;;;37.80;19.93;;;;;;;3.23;93.05;100775.18;1725652;82;21564;-75
2022/11/29 00:06:22;;;;;;;38.80;21.47;;;;;;;3.23;93.03;100771.73;1725092;82;21178;-75
2022/11/29 00:08:50;;;;;;;38.28;21.85;;;;;;;3.19;92.94;100773.47;1725464;82;21445;-75
2022/11/29 00:14:09;;;;;;;37.87;22.23;;;;;;;3.14;92.88;100771.31;1710275;82;21599;-75
2022/11/29 00:16:39;;;;;;;37.65;21.77;;;;;;;3.13;92.98;100776.04;1710381;82;21468;-75
2022/11/29 00:19:06;;;;;;;34.73;20.77;;;;;;;3.12;93.02;100779.50;1713905;82;21201;-75
2022/11/29 00:21:33;;;;;;;39.37;22.30;;;;;;;3.10;93.10;100775.64;1705088;82;21018;-75
2022/11/29 00:24:00;;;;;;;40.00;22.43;;;;;;;3.10;93.10;100780.82;1711697;82;21029;-74
2022/11/29 00:26:28;;;;;;;36.83;21.20;;;;;;;3.10;93.09;100774.75;1723723;82;21047;-74
2022/11/29 00:28:55;;;;;;;35.73;20.97;;;;;;;3.10;93.08;100778.63;1729464;82;21279;-75
2022/11/29 00:31:31;;;;;;;39.40;22.47;;;;;;;3.10;93.15;100773.05;1727734;82;21958;-75
2022/11/29 00:34:02;;;;;;;40.43;23.67;;;;;;;3.11;93.07;100771.31;1725272;82;21035;-75
2022/11/29 00:36:29;;;;;;;37.00;21.83;;;;;;;3.09;93.10;100770.45;1725153;82;21003;-74
2022/11/29 00:38:57;;;;;;;36.77;22.43;;;;;;;3.07;93.06;100770.44;1732001;81;21070;-75
2022/11/29 00:41:25;;;;;;;39.33;22.23;;;;;;;3.07;93.11;100774.31;1715912;82;21261;-75
2022/11/29 00:43:52;;;;;;;38.33;22.50;;;;;;;3.06;93.04;100773.90;1720707;82;21145;-74
2022/11/29 00:46:19;;;;;;;39.30;22.77;;;;;;;3.07;93.13;100776.05;1725463;82;21019;-75
2022/11/29 00:48:46;;;;;;;38.23;21.57;;;;;;;3.08;93.19;100780.39;1711272;82;21048;-75
2022/11/29 00:51:14;;;;;;;37.30;21.13;;;;;;;3.06;93.14;100775.19;1716159;82;21455;-75
2022/11/29 00:53:41;;;;;;;42.80;22.70;;;;;;;3.07;93.13;100773.46;1705311;84;21499;-75
2022/11/29 00:56:08;;;;;;;38.13;22.93;;;;;;;3.06;93.14;100776.48;1724069;82;21877;-75
2022/11/29 00:58:36;;;;;;;40.10;22.47;;;;;;;3.06;93.12;100770.02;1725135;82;21039;-74
2022/11/29 01:01:04;;;;;;;39.43;23.03;;;;;;;3.06;93.16;100767.86;1725495;82;20995;-74
2022/11/29 01:03:31;;;;;;;40.17;23.63;;;;;;;3.05;93.13;100767.44;1725298;82;21556;-75
2022/11/29 01:06:09;;;;;;;42.30;23.37;;;;;;;3.04;93.10;100766.55;1725258;82;21050;-75
2022/11/29 01:08:36;;;;;;;43.30;23.63;;;;;;;3.04;93.04;100768.28;1725731;82;21775;-75
2022/11/29 01:11:10;;;;;;;39.23;23.20;;;;;;;3.02;93.12;100774.78;1725148;82;21051;-75
2022/11/29 01:13:38;;;;;;;39.50;22.97;;;;;;;3.02;93.16;100774.78;1725571;82;22010;-75
2022/11/29 01:16:06;;;;;;;42.60;24.13;;;;;;;3.03;93.09;100783.41;1725337;82;21058;-75
2022/11/29 01:18:34;;;;;;;41.37;23.70;;;;;;;3.01;93.03;100776.06;1725692;82;21008;-75
2022/11/29 01:21:06;;;;;;;41.60;24.57;;;;;;;3.01;93.01;100777.35;1720299;82;21141;-75
2022/11/29 01:23:35;;;;;;;41.30;24.63;;;;;;;3.00;93.06;100778.23;1720234;82;21030;-75
2022/11/29 01:26:09;;;;;;;42.43;24.57;;;;;;;2.99;93.10;100777.34;1725219;82;21524;-75
2022/11/29 01:28:38;;;;;;;42.67;24.13;;;;;;;2.98;93.04;100779.95;1718137;82;21092;-73
2022/11/29 01:31:10;;;;;;;45.47;25.07;;;;;;;2.96;93.05;100776.48;1728252;82;21490;-75
2022/11/29 01:33:37;;;;;;;42.03;23.13;;;;;;;2.94;92.97;100775.61;1723895;82;22293;-74
2022/11/29 01:36:06;;;;;;;39.03;23.00;;;;;;;2.92;93.07;100778.22;1721935;82;21034;-75
2022/11/29 01:38:34;;;;;;;41.00;23.70;;;;;;;2.92;93.03;100774.77;1733082;82;21031;-75
2022/11/29 01:41:05;;;;;;;43.73;24.53;;;;;;;2.94;93.20;100778.20;1694337;83;21061;-74
2022/11/29 01:43:34;;;;;;;43.27;24.43;;;;;;;2.92;93.17;100768.30;1702283;83;21530;-75
2022/11/29 01:46:01;;;;;;;40.73;22.47;;;;;;;2.93;93.08;100772.17;1706483;83;21120;-75
2022/11/29 01:48:32;;;;;;;44.57;24.03;;;;;;;2.91;93.12;100776.51;1706719;83;21525;-75
2022/11/29 01:51:00;;;;;;;41.68;23.80;;;;;;;2.91;93.12;100777.80;1706688;83;21001;-75
2022/11/29 01:53:28;;;;;;;45.37;24.30;;;;;;;2.90;93.11;100774.76;1706525;83;21000;-74
2022/11/29 01:55:59;;;;;;;44.67;25.47;;;;;;;2.88;93.08;100775.18;1706526;83;21016;-75
2022/11/29 01:58:27;;;;;;;46.57;24.60;;;;;;;2.86;93.05;100770.45;1706628;83;21110;-75
2022/11/29 02:00:57;;;;;;;39.27;22.53;;;;;;;2.84;93.10;100773.03;1723143;83;21095;-74
2022/11/29 02:03:24;;;;;;;40.60;24.85;;;;;;;2.85;93.17;100768.27;1724317;83;21081;-74
2022/11/29 02:05:52;;;;;;;42.30;24.60;;;;;;;2.84;93.13;100770.88;1724163;81;21087;-75
2022/11/29 02:08:24;;;;;;;48.50;25.27;;;;;;;2.83;93.12;100773.05;1710558;82;20999;-75
2022/11/29 02:11:18;;;;;;;43.17;24.23;;;;;;;2.83;93.14;100774.34;1724797;83;21160;-74
2022/11/29 02:14:20;;;;;;;43.13;24.60;;;;;;;2.81;93.09;100769.15;1712108;82;21029;-75
2022/11/29 02:17:10;;;;;;;44.83;24.97;;;;;;;2.80;93.09;100773.02;1700062;82;21014;-75
2022/11/29 02:20:24;;;;;;;40.23;23.50;;;;;;;2.79;93.06;100780.36;1682420;84;21115;-75
2022/11/29 02:23:05;;;;;;;40.77;23.57;;;;;;;2.78;93.10;100782.53;1687851;84;21599;-75
2022/11/29 02:25:40;;;;;;;42.50;24.50;;;;;;;2.78;93.18;100771.74;1679743;84;21593;-75
2022/11/29 02:28:50;;;;;;;45.00;24.17;;;;;;;2.76;93.03;100776.48;1651949;85;21501;-75
2022/11/29 02:32:04;;;;;;;40.30;22.62;;;;;;;2.74;93.03;100773.88;1657616;85;21102;-75
2022/11/29 02:34:39;;;;;;;43.70;23.83;;;;;;;2.72;93.01;100771.74;1686258;84;21558;-75
2022/11/29 02:37:18;;;;;;;48.80;24.43;;;;;;;2.68;92.99;100773.44;1687892;84;21558;-75
2022/11/29 02:40:15;;;;;;;43.03;24.57;;;;;;;2.68;93.09;100768.27;1708377;84;21344;-75
2022/11/29 02:42:50;;;;;;;42.20;23.10;;;;;;;2.66;93.05;100771.30;1695195;84;21102;-74
2022/11/29 02:45:42;;;;;;;42.27;24.47;;;;;;;2.65;93.08;100775.17;1688128;84;20933;-74
2022/11/29 02:48:36;;;;;;;43.13;24.60;;;;;;;2.64;93.08;100778.63;1662296;85;21010;-75
2022/11/29 02:51:27;;;;;;;41.80;24.27;;;;;;;2.63;93.16;100784.64;1681408;84;21089;-75
2022/11/29 02:54:15;;;;;;;41.02;24.10;;;;;;;2.61;93.10;100782.52;1623035;88;21089;-75
2022/11/29 02:57:00;;;;;;;40.90;24.17;;;;;;;2.55;93.15;100778.59;1728095;82;21504;-75
2022/11/29 02:59:58;;;;;;;43.00;24.40;;;;;;;2.58;93.15;100788.98;1729655;82;21017;-74
2022/11/29 03:02:39;;;;;;;43.83;24.93;;;;;;;2.57;93.17;100795.00;1729740;83;21003;-74
2022/11/29 03:05:21;;;;;;;43.10;24.60;;;;;;;2.55;93.21;100792.42;1721913;83;21038;-74
2022/11/29 03:08:11;;;;;;;42.07;24.93;;;;;;;2.55;93.31;100792.83;1726755;83;21098;-74
2022/11/29 03:10:55;;;;;;;44.25;23.47;;;;;;;2.55;93.30;100793.72;1722444;82;21021;-75
2022/11/29 03:13:39;;;;;;;44.87;24.17;;;;;;;2.56;93.27;100796.72;1689971;82;21017;-74
2022/11/29 03:16:48;;;;;;;43.73;24.27;;;;;;;2.56;93.35;100791.98;1713622;82;21533;-74
2022/11/29 03:19:32;;;;;;;42.53;23.27;;;;;;;2.57;93.34;100795.00;1740191;82;21067;-75
2022/11/29 03:22:10;;;;;;;43.93;24.43;;;;;;;2.57;93.33;100801.47;1741889;82;21927;-75
2022/11/29 03:25:09;;;;;;;41.53;23.67;;;;;;;2.57;93.37;100802.76;1741702;82;21082;-75
2022/11/29 03:27:47;;;;;;;43.37;24.07;;;;;;;2.57;93.40;100807.50;1735197;82;21059;-74
2022/11/29 03:30:17;;;;;;;43.07;24.13;;;;;;;2.57;93.34;100802.32;1713313;82;21029;-75
2022/11/29 03:32:58;;;;;;;43.05;24.00;;;;;;;2.58;93.40;100807.95;1720058;82;21504;-75
2022/11/29 03:36:00;;;;;;;41.67;24.50;;;;;;;2.60;93.41;100807.50;1741244;82;21127;-75
2022/11/29 03:38:38;;;;;;;40.83;23.07;;;;;;;2.61;93.37;100805.37;1740191;81;20995;-75
2022/11/29 03:41:31;;;;;;;42.10;22.83;;;;;;;2.63;93.39;100804.06;1733886;82;21026;-74
2022/11/29 03:44:20;;;;;;;40.97;23.00;;;;;;;2.63;93.40;100801.47;1733261;82;21034;-74
2022/11/29 03:47:00;;;;;;;44.77;23.97;;;;;;;2.63;93.30;100802.36;1730560;82;21019;-74
2022/11/29 03:49:37;;;;;;;;;;;;;;;2.63;93.30;100802.77;1728500;82;21290;-74
2022/11/29 03:52:25;;;;;;;44.63;23.97;;;;;;;2.62;93.28;100801.05;1727308;82;20180;-74
2022/11/29 03:55:31;;;;;;;40.47;22.77;;;;;;;2.62;93.35;100799.75;1733852;81;21049;-74
2022/11/29 03:58:33;;;;;;;40.57;21.73;;;;;;;2.61;93.23;100800.63;1728412;82;20997;-73
2022/11/29 04:01:37;;;;;;;34.97;20.90;;;;;;;2.57;93.15;100805.34;1733308;82;21061;-74
2022/11/29 04:04:18;;;;;;;37.63;21.20;;;;;;;2.54;93.10;100802.32;1703973;83;21120;-74
2022/11/29 04:07:08;;;;;;;38.73;22.07;;;;;;;2.52;93.08;100810.50;1683173;83;21227;-74
2022/11/29 04:10:11;;;;;;;38.40;22.13;;;;;;;2.50;93.10;100810.95;1704190;83;21011;-74
2022/11/29 04:13:07;;;;;;;37.47;21.50;;;;;;;2.49;93.21;100811.79;1669878;85;21639;-74
2022/11/29 04:15:56;;;;;;;43.47;21.33;;;;;;;2.49;93.14;100815.67;1711299;82;21542;-74
2022/11/29 04:19:07;;;;;;;37.10;21.27;;;;;;;2.48;93.17;100820.42;1713592;82;21059;-74
2022/11/29 04:22:19;;;;;;;39.53;21.20;;;;;;;2.48;93.17;100819.56;1721902;82;21017;-74
2022/11/29 04:25:21;;;;;;;35.97;20.53;;;;;;;2.49;93.24;100826.02;1743337;82;21340;-74
2022/11/29 04:28:13;;;;;;;38.63;22.40;;;;;;;2.45;93.12;100822.57;1736206;81;21028;-74
2022/11/29 04:31:04;;;;;;;37.17;21.17;;;;;;;2.44;93.11;100831.64;1731581;82;21079;-74
2022/11/29 04:33:46;;;;;;;;;;;;;;;2.41;93.09;100835.08;1732122;82;21155;-74
2022/11/29 04:36:28;;;;;;;42.50;21.23;;;;;;;2.39;93.00;100832.91;1729060;82;20171;-74
2022/11/29 04:39:12;;;;;;;38.63;21.47;;;;;;;2.36;93.06;100837.22;1715566;82;21026;-75
2022/11/29 04:41:59;;;;;;;36.00;20.53;;;;;;;2.33;93.02;100836.77;1713038;82;21476;-75
2022/11/29 04:44:43;;;;;;;39.93;21.90;;;;;;;2.31;93.07;100835.03;1724488;81;21030;-75
2022/11/29 04:48:01;;;;;;;39.33;20.80;;;;;;;2.30;93.05;100831.99;1738406;82;21130;-74
2022/11/29 04:51:01;;;;;;;37.17;19.63;;;;;;;2.27;93.00;100839.31;1729656;81;21045;-75
2022/11/29 04:54:07;;;;;;;40.60;21.37;;;;;;;2.23;93.08;100835.00;1730700;82;21535;-74
2022/11/29 04:57:11;;;;;;;37.47;20.43;;;;;;;2.21;93.08;100840.16;1749020;81;21044;-75
2022/11/29 04:59:52;;;;;;;39.27;20.17;;;;;;;2.21;93.16;100847.91;1725990;83;21563;-74
2022/11/29 05:02:25;;;;;;;35.67;18.93;;;;;;;2.18;93.16;100845.31;1717303;82;21159;-74
2022/11/29 05:05:06;;;;;;;36.13;20.30;;;;;;;2.19;93.28;100845.77;1746131;81;21042;-75
2022/11/29 05:08:16;;;;;;;39.80;21.37;;;;;;;2.19;93.21;100847.47;1719191;82;21030;-74
2022/11/29 05:11:06;;;;;;;36.97;20.73;;;;;;;2.19;93.17;100850.05;1723959;82;21058;-74
2022/11/29 05:13:57;;;;;;;40.98;21.52;;;;;;;2.16;93.12;100848.34;1738422;81;20984;-75
2022/11/29 05:16:50;;;;;;;37.03;20.25;;;;;;;2.15;93.19;100858.23;1727494;81;21138;-75
2022/11/29 05:20:16;;;;;;;36.33;20.37;;;;;;;2.14;93.24;100861.69;1720667;82;21992;-74
2022/11/29 05:23:03;;;;;;;38.00;20.23;;;;;;;2.14;93.23;100859.53;1721902;82;21011;-74
2022/11/29 05:25:54;;;;;;;41.50;21.63;;;;;;;2.12;93.31;100863.39;1724281;82;21016;-75
2022/11/29 05:28:53;;;;;;;;;;;;;;;2.13;93.28;100867.70;1725932;82;21514;-74
2022/11/29 05:31:50;;;;;;;38.63;20.90;;;;;;;2.10;93.23;100866.83;1715382;82;21153;-74
2022/11/29 05:34:22;;;;;;;38.87;20.97;;;;;;;2.08;93.23;100876.29;1719916;82;20986;-75
2022/11/29 05:37:10;;;;;;;44.10;22.60;;;;;;;2.07;93.35;100873.28;1689565;83;21014;-75
2022/11/29 05:40:07;;;;;;;41.40;20.60;;;;;;;2.07;93.33;100873.28;1720585;83;21056;-74
2022/11/29 05:42:57;;;;;;;44.43;21.90;;;;;;;2.05;93.31;100873.69;1715191;81;21081;-74
2022/11/29 05:45:32;;;;;;;39.00;21.07;;;;;;;2.01;93.28;100876.27;1739923;81;21555;-74
2022/11/29 05:48:10;;;;;;;35.93;20.80;;;;;;;2.00;93.27;100883.59;1738610;81;20910;-74
2022/11/29 05:50:43;;;;;;;37.27;20.40;;;;;;;1.99;93.29;100884.86;1719243;81;21007;-74
2022/11/29 05:53:38;;;;;;;40.77;21.90;;;;;;;1.98;93.32;100883.14;1713941;81;21532;-74
2022/11/29 05:56:28;;;;;;;42.73;22.57;;;;;;;1.98;93.34;100889.17;1707602;82;21004;-74
2022/11/29 05:59:09;;;;;;;40.60;21.87;;;;;;;1.97;93.32;100891.77;1700219;81;21288;-75
2022/11/29 06:02:05;;;;;;;41.65;22.37;;;;;;;1.95;93.37;100894.33;1704659;82;28125;-75
2022/11/29 06:04:49;;;;;;;42.40;21.33;;;;;;;1.93;93.35;100896.03;1718739;82;21471;-74
2022/11/29 06:07:30;;;;;;;43.07;21.30;;;;;;;1.93;93.43;100891.30;1693645;82;21074;-75
2022/11/29 06:10:02;;;;;;;40.07;22.03;;;;;;;1.94;93.45;100897.78;1707993;82;21054;-75
2022/11/29 06:12:34;;;;;;;45.40;21.87;;;;;;;1.93;93.44;100899.05;1711103;82;21341;-74
2022/11/29 06:15:45;;;;;;;37.23;20.73;;;;;;;1.92;93.52;100898.20;1706268;82;21022;-74
2022/11/29 06:18:40;;;;;;;38.70;20.65;;;;;;;1.94;93.52;100896.89;1712859;82;21023;-75
2022/11/29 06:21:41;;;;;;;38.03;21.23;;;;;;;1.93;93.54;100903.79;1710226;81;21056;-74
2022/11/29 06:24:46;;;;;;;39.33;21.70;;;;;;;1.93;93.54;100902.93;1714307;82;21050;-73
2022/11/29 06:27:47;;;;;;;38.80;21.23;;;;;;;1.92;93.62;100903.36;1731318;82;21129;-73
2022/11/29 06:30:19;;;;;;;39.07;21.23;;;;;;;1.95;93.75;100910.28;1730853;82;21426;-74
2022/11/29 06:33:10;;;;;;;37.80;20.67;;;;;;;1.95;93.70;100909.84;1731805;82;21071;-74
2022/11/29 06:35:54;;;;;;;39.05;21.75;;;;;;;1.95;93.66;100920.62;1732467;81;20989;-74
2022/11/29 06:38:28;;;;;;;35.87;19.67;;;;;;;1.96;93.74;100917.16;1731874;82;21271;-74
2022/11/29 06:40:58;;;;;;;37.43;20.47;;;;;;;1.98;93.85;100922.78;1714486;82;21984;-74
2022/11/29 06:43:26;;;;;;;37.78;20.02;;;;;;;2.00;93.89;100921.52;1722625;82;21387;-75
2022/11/29 06:46:01;;;;;;;39.67;21.50;;;;;;;2.03;93.87;100925.84;1724290;82;21048;-75
2022/11/29 06:48:34;;;;;;;40.90;21.60;;;;;;;2.06;93.94;100928.02;1727839;81;21066;-74
2022/11/29 06:51:30;;;;;;;38.87;21.03;;;;;;;2.08;93.89;100931.88;1732467;82;21086;-74
2022/11/29 06:54:46;;;;;;;35.93;20.50;;;;;;;2.09;93.92;100929.32;1725037;83;21123;-75
2022/11/29 06:57:51;;;;;;;38.37;20.60;;;;;;;2.12;93.93;100931.92;1728396;82;21055;-74
2022/11/29 07:00:26;;;;;;;38.17;21.33;;;;;;;2.15;93.95;100937.11;1740786;82;21063;-75
2022/11/29 07:03:25;;;;;;;37.53;21.40;;;;;;;2.18;94.01;100945.31;1732630;82;21020;-75
2022/11/29 07:05:53;;;;;;;38.17;21.15;;;;;;;2.20;94.07;100945.77;1723034;82;21515;-75
2022/11/29 07:08:23;;;;;;;40.20;20.57;;;;;;;2.25;94.16;100944.51;1722141;82;21149;-76
2022/11/29 07:10:54;;;;;;;38.73;21.55;;;;;;;2.30;94.22;100939.34;1731284;82;21035;-79
2022/11/29 07:13:22;;;;;;;37.67;20.20;;;;;;;2.33;94.11;100945.42;1722227;81;21003;-79
2022/11/29 07:16:12;;;;;;;33.43;19.87;;;;;;;2.38;94.13;100946.72;1727911;82;21456;-74
2022/11/29 07:18:47;;;;;;;35.65;19.50;;;;;;;2.44;94.23;100948.92;1732286;82;21240;-81
2022/11/29 07:21:32;;;;;;;42.23;22.07;;;;;;;2.49;94.17;100946.34;1690194;81;21149;-77
2022/11/29 07:24:19;;;;;;;39.30;21.00;;;;;;;2.55;94.15;100953.27;1731362;82;21508;-75
2022/11/29 07:27:07;;;;;;;34.67;20.43;;;;;;;2.58;94.07;100950.72;1734037;82;21035;-77
2022/11/29 07:30:05;;;;;;;35.87;20.20;;;;;;;2.62;94.05;100955.89;1741048;81;22195;-78
2022/11/29 07:32:46;;;;;;;37.60;19.67;;;;;;;2.67;94.06;100952.91;1734621;81;21046;-77
2022/11/29 07:35:34;;;;;;;39.97;21.17;;;;;;;2.74;94.09;100954.21;1734085;81;21116;-77
2022/11/29 07:38:30;;;;;;;39.10;20.27;;;;;;;2.79;94.08;100961.14;1731828;82;21460;-77
2022/11/29 07:41:09;;;;;;;34.37;19.77;;;;;;;2.85;94.04;100959.00;1722168;81;21039;-77
2022/11/29 07:43:44;;;;;;;35.77;20.43;;;;;;;2.92;94.06;100954.72;1729300;82;20967;-74
2022/11/29 07:46:11;;;;;;;37.87;20.10;;;;;;;2.97;94.00;100953.88;1715415;82;21043;-73
2022/11/29 07:48:38;;;;;;;34.73;20.73;;;;;;;3.00;93.92;100956.47;1720665;82;21152;-74
2022/11/29 07:51:05;;;;;;;33.00;19.30;;;;;;;3.06;93.78;100959.08;1723002;82;21457;-75
2022/11/29 07:53:34;;;;;;;33.60;19.17;;;;;;;3.09;93.78;100957.78;1715232;82;21043;-75
2022/11/29 07:56:02;;;;;;;34.53;19.67;;;;;;;3.13;93.70;100960.83;1716559;82;21078;-74
2022/11/29 07:58:29;;;;;;;34.67;20.90;;;;;;;3.16;93.66;100961.67;1715234;82;21043;-73
2022/11/29 08:00:56;;;;;;;34.53;19.87;;;;;;;3.23;93.69;100962.14;1724183;82;21907;-75
2022/11/29 08:03:23;;;;;;;35.13;19.40;;;;;;;3.25;93.53;100963.88;1714760;82;20992;-75
2022/11/29 08:05:50;;;;;;;37.00;20.63;;;;;;;3.28;93.48;100963.02;1724247;82;21462;-74
2022/11/29 08:08:17;;;;;;;34.53;19.13;;;;;;;3.31;93.50;100965.61;1722083;82;21473;-76
2022/11/29 08:10:44;;;;;;;37.17;20.80;;;;;;;3.34;93.49;100967.77;1719563;82;21081;-76
2022/11/29 08:13:12;;;;;;;33.67;18.93;;;;;;;3.41;93.59;100969.95;1718936;82;22265;-77
2022/11/29 08:15:44;;;;;;;30.87;18.10;;;;;;;3.48;93.59;100966.48;1725506;82;21020;-76
2022/11/29 08:18:12;;;;;;;32.30;18.73;;;;;;;3.53;93.53;100969.09;1722918;82;21126;-77
2022/11/29 08:20:40;;;;;;;32.10;18.70;;;;;;;3.60;93.46;100968.66;1724068;82;21027;-76
2022/11/29 08:23:11;;;;;;;32.13;18.50;;;;;;;3.64;93.28;100971.27;1725065;82;21020;-76
2022/11/29 08:25:38;;;;;;;35.73;19.85;;;;;;;3.66;93.21;100964.36;1722308;82;28029;-76
2022/11/29 08:28:05;;;;;;;33.97;18.87;;;;;;;3.71;93.21;100964.34;1720664;82;21510;-76
2022/11/29 08:30:32;;;;;;;30.63;18.10;;;;;;;3.76;93.09;100966.06;1720989;82;21507;-76
2022/11/29 08:32:59;;;;;;;32.10;18.20;;;;;;;3.79;93.11;100969.95;1721057;82;21309;-76
2022/11/29 08:35:26;;;;;;;31.03;18.50;;;;;;;3.85;93.10;100970.38;1721629;82;21539;-77
2022/11/29 08:37:54;;;;;;;31.63;17.67;;;;;;;3.91;93.10;100971.70;1722992;82;21140;-76
2022/11/29 08:40:22;;;;;;;28.77;17.13;;;;;;;3.98;93.14;100969.95;1720251;82;21095;-76
2022/11/29 08:42:49;;;;;;;30.13;17.53;;;;;;;4.03;93.06;100974.70;1721319;81;21492;-76
2022/11/29 08:45:16;;;;;;;29.03;17.43;;;;;;;4.09;92.91;100977.29;1721141;82;21132;-76
2022/11/29 08:47:43;;;;;;;32.00;17.40;;;;;;;4.12;92.80;100979.02;1722146;82;21083;-74
2022/11/29 08:50:16;;;;;;;31.20;17.83;;;;;;;4.15;92.82;100979.87;1721580;82;21143;-74
2022/11/29 08:55:39;;;;;;;29.57;17.20;;;;;;;4.23;92.71;100978.56;1719448;82;21495;-74
2022/11/29 08:58:10;;;;;;;33.17;18.03;;;;;;;4.26;92.61;100981.15;1718412;82;21023;-74
2022/11/29 09:00:38;;;;;;;27.00;17.47;;;;;;;4.31;92.59;100982.45;1723264;82;21039;-74
2022/11/29 09:05:52;;;;;;;30.40;17.60;;;;;;;4.37;92.43;100982.44;1715710;82;21035;-75
2022/11/29 09:08:20;;;;;;;29.00;17.07;;;;;;;4.43;92.40;100985.89;1720671;82;21525;-75
2022/11/29 09:10:48;;;;;;;29.37;18.03;;;;;;;4.48;92.36;100991.05;1722223;82;20917;-76
2022/11/29 09:13:16;;;;;;;30.30;17.70;;;;;;;4.51;92.45;100987.15;1717883;82;21066;-74
2022/11/29 09:15:43;;;;;;;30.27;17.40;;;;;;;4.56;92.28;100988.00;1723099;82;22066;-74
2022/11/29 09:18:10;;;;;;;27.20;15.80;;;;;;;4.60;92.21;100988.44;1716807;82;21024;-74
2022/11/29 09:20:39;;;;;;;25.40;16.33;;;;;;;4.63;92.18;100985.83;1723239;82;21000;-74
2022/11/29 09:23:06;;;;;;;29.43;16.63;;;;;;;4.70;92.15;100993.16;1722080;82;21334;-73
2022/11/29 09:25:33;;;;;;;28.93;17.03;;;;;;;4.75;92.17;100991.41;1716392;82;21036;-73
2022/11/29 09:28:01;;;;;;;28.03;16.97;;;;;;;4.82;92.12;100989.23;1717424;82;21216;-72
2022/11/29 09:30:30;;;;;;;25.03;15.70;;;;;;;4.87;91.88;100989.19;1717603;82;21243;-73
2022/11/29 09:33:04;;;;;;;25.77;15.87;;;;;;;4.92;91.75;100988.74;1729186;82;21038;-73
2022/11/29 09:35:32;;;;;;;25.33;16.20;;;;;;;4.98;91.66;100996.50;1718078;82;21064;-78
2022/11/29 09:37:59;;;;;;;26.47;15.57;;;;;;;5.04;91.60;100991.27;1729427;82;21043;-75
2022/11/29 09:40:55;;;;;;;28.03;16.17;;;;;;;5.09;91.45;100992.55;1729145;82;21778;-77
2022/11/29 09:44:07;;;;;;;28.43;15.87;;;;;;;5.13;91.40;100989.09;1704111;82;21019;-72
2022/11/29 09:46:52;;;;;;;24.77;15.30;;;;;;;5.22;91.38;100990.77;1692112;82;21574;-73
2022/11/29 09:49:50;;;;;;;26.43;15.67;;;;;;;5.29;91.19;100992.44;1694768;83;20996;-72
2022/11/29 09:52:45;;;;;;;26.13;15.60;;;;;;;5.29;90.79;100998.53;1699999;83;21466;-72
2022/11/29 09:55:38;;;;;;;25.73;15.60;;;;;;;5.33;90.63;100994.17;1705411;83;21506;-74
2022/11/29 09:58:10;;;;;;;22.87;14.93;;;;;;;5.37;90.59;100994.56;1734886;82;20995;-75
2022/11/29 10:00:43;;;;;;;25.30;16.00;;;;;;;5.46;90.70;100998.83;1744067;81;21054;-73
2022/11/29 10:03:15;;;;;;;26.00;15.83;;;;;;;5.49;90.37;100996.25;1720227;83;21580;-73
2022/11/29 10:05:49;;;;;;;26.83;16.77;;;;;;;5.56;90.43;100996.61;1728290;81;21353;-72
2022/11/29 10:08:41;;;;;;;24.63;14.87;;;;;;;5.58;90.15;100993.13;1730733;82;21972;-72
2022/11/29 10:11:32;;;;;;;25.40;15.87;;;;;;;5.64;89.96;100992.66;1733397;82;20951;-72
2022/11/29 10:14:21;;;;;;;24.92;15.15;;;;;;;5.66;89.83;100994.38;1721234;83;21493;-72
2022/11/29 10:17:07;;;;;;;24.50;15.55;;;;;;;5.70;89.76;100990.87;1729753;81;21066;-72
2022/11/29 10:19:39;;;;;;;26.27;15.87;;;;;;;5.75;89.77;100992.14;1691703;82;22380;-72
2022/11/29 10:22:29;;;;;;;25.17;16.20;;;;;;;5.77;89.42;100993.86;1750228;81;21509;-72
2022/11/29 10:25:00;;;;;;;26.50;16.65;;;;;;;5.77;89.21;100995.16;1711949;83;21041;-73
2022/11/29 10:27:28;;;;;;;23.93;15.57;;;;;;;5.79;88.93;100989.92;1710157;81;21035;-72
2022/11/29 10:29:59;;;;;;;25.37;16.97;;;;;;;5.79;89.01;100998.63;1745880;80;21494;-72
2022/11/29 10:32:31;;;;;;;24.30;15.87;;;;;;;5.86;89.27;100999.42;1731131;81;21030;-72
2022/11/29 10:34:59;;;;;;;23.83;15.70;;;;;;;5.88;88.89;100996.38;1735320;81;21619;-72
2022/11/29 10:37:31;;;;;;;27.10;17.10;;;;;;;5.89;88.56;100994.19;1723193;82;21509;-72
2022/11/29 10:40:06;;;;;;;28.37;16.40;;;;;;;5.89;88.38;100998.09;1725909;82;21095;-72
2022/11/29 10:42:49;;;;;;;23.40;15.63;;;;;;;5.88;88.31;100989.02;1735126;81;21559;-72
2022/11/29 10:45:42;;;;;;;26.63;17.73;;;;;;;5.86;88.31;100991.62;1739188;82;21555;-72
2022/11/29 10:48:14;;;;;;;26.33;17.10;;;;;;;5.86;88.19;100992.92;1731992;81;21868;-72
2022/11/29 10:50:44;;;;;;;25.13;15.73;;;;;;;5.90;88.22;100990.70;1733567;82;21018;-71
2022/11/29 10:53:18;;;;;;;24.50;16.32;;;;;;;5.93;88.20;100991.12;1737001;82;21027;-72
2022/11/29 10:55:54;;;;;;;25.37;16.37;;;;;;;5.96;88.15;100995.91;1737408;82;21031;-72
2022/11/29 10:58:24;;;;;;;29.33;17.03;;;;;;;5.99;88.07;100991.12;1737827;81;21039;-71
2022/11/29 11:01:06;;;;;;;26.97;16.20;;;;;;;6.02;88.10;100995.00;1734821;82;21222;-72
2022/11/29 11:03:52;;;;;;;25.53;16.27;;;;;;;6.05;88.04;100995.41;1736161;82;21596;-73
2022/11/29 11:06:29;;;;;;;24.43;15.37;;;;;;;6.08;87.81;100992.33;1734956;82;21413;-71
2022/11/29 11:09:17;;;;;;;25.10;16.20;;;;;;;6.12;87.80;100993.16;1733596;82;21615;-72
2022/11/29 11:11:56;;;;;;;26.57;16.57;;;;;;;6.21;87.88;100988.74;1724320;82;21034;-71
2022/11/29 11:14:33;;;;;;;24.93;16.07;;;;;;;6.26;87.77;100991.28;1734257;82;21130;-71
2022/11/29 11:17:26;;;;;;;25.20;15.83;;;;;;;6.27;87.58;100990.87;1737451;81;21050;-72
2022/11/29 11:20:19;;;;;;;24.17;16.37;;;;;;;6.31;87.46;100986.89;1732763;82;21052;-73
2022/11/29 11:23:08;;;;;;;26.50;17.60;;;;;;;6.37;87.42;100993.33;1734350;81;21082;-81
2022/11/29 11:25:38;;;;;;;26.63;17.33;;;;;;;6.40;87.12;100997.23;1729994;82;21078;-77
2022/11/29 11:28:20;;;;;;;26.60;17.67;;;;;;;6.41;86.87;100998.95;1735728;82;21922;-75
2022/11/29 11:31:07;;;;;;;26.30;16.60;;;;;;;6.47;86.92;101004.53;1731303;82;21015;-75
2022/11/29 11:33:42;;;;;;;29.07;18.93;;;;;;;6.48;86.75;100999.73;1734272;82;21055;-75
2022/11/29 11:36:17;;;;;;;36.30;22.50;;;;;;;6.53;86.65;101001.86;1739214;82;21593;-74
2022/11/29 11:39:12;;;;;;;43.30;27.63;;;;;;;6.55;86.45;101003.16;1727517;82;21647;-76
2022/11/29 11:44:49;;;;;;;23.80;16.40;;;;;;;6.64;86.45;101003.05;1724643;82;21038;-75
2022/11/29 11:47:20;;;;;;;23.97;16.20;;;;;;;6.75;86.29;101006.39;1724386;82;21331;-78
2022/11/29 11:50:02;;;;;;;26.83;16.43;;;;;;;6.87;86.09;101010.17;1732165;81;21044;-77
2022/11/29 11:52:47;;;;;;;25.27;16.53;;;;;;;7.00;86.22;101009.56;1749653;81;22174;-77
2022/11/29 11:55:36;;;;;;;24.17;16.67;;;;;;;7.23;86.07;101004.04;1721384;82;21167;-76
2022/11/29 11:58:15;;;;;;;32.08;21.48;;;;;;;7.36;85.83;101007.35;1724193;82;21036;-76
2022/11/29 12:00:52;;;;;;;25.20;18.43;;;;;;;7.42;85.32;101006.40;1723816;82;21035;-76
2022/11/29 12:03:45;;;;;;;35.67;23.03;;;;;;;7.36;84.79;101016.48;1724525;82;21051;-76
2022/11/29 12:06:52;;;;;;;25.93;18.17;;;;;;;7.32;84.70;101009.59;1724030;82;21047;-76
2022/11/29 12:09:54;;;;;;;29.27;19.60;;;;;;;7.31;84.53;101015.67;1723859;82;21134;-76
2022/11/29 12:12:25;;;;;;;29.53;20.20;;;;;;;7.24;84.57;101021.42;1724178;82;21418;-76
2022/11/29 12:15:18;;;;;;;30.10;19.67;;;;;;;7.21;84.69;101017.56;1726287;82;21027;-76
2022/11/29 12:18:02;;;;;;;28.23;18.43;;;;;;;7.12;84.51;101021.57;1712572;82;21454;-77
2022/11/29 12:20:49;;;;;;;27.97;17.87;;;;;;;6.99;84.23;101026.55;1724307;82;21047;-77
2022/11/29 12:23:46;;;;;;;30.63;20.77;;;;;;;6.91;84.29;101022.72;1724933;82;21093;-76
2022/11/29 12:26:25;;;;;;;27.40;18.20;;;;;;;6.93;84.54;101023.13;1717753;82;21034;-76
2022/11/29 12:28:52;;;;;;;29.13;18.27;;;;;;;6.87;84.35;101020.59;1725488;82;21020;-76